Time;durP1;ratioP1;P1;durP2;ratioP2;P2;SDS_P1;SDS_P2;PMS_P1;PMS_P2;Temp;Humidity;BMP_temperature;BMP_pressure;BME280_temperature;BME280_humidity;BME280_pressure;Samples;Min_cycle;Max_cycle;Signal;HPM_P1;HPM_P2
2023/04/14 00:00:16;;;;;;;4.00;3.60;;;;;;;;;;5033596;28;20919;-78
2023/04/14 00:02:46;;;;;;;4.87;3.30;;;;;;;;;;5033975;28;20889;-76
2023/04/14 00:05:23;;;;;;;5.43;3.90;;;;;;;;;;5034851;28;20888;-77
2023/04/14 00:07:58;;;;;;;3.27;3.03;;;;;;;;;;5032856;28;20481;-77
2023/04/14 00:10:28;;;;;;;4.93;3.20;;;;;;;;;;5032519;28;20896;-77
2023/04/14 00:12:59;;;;;;;3.90;3.13;;;;;;;;;;5032607;28;20510;-76
2023/04/14 00:15:27;;;;;;;4.47;4.00;;;;;;;;;;5032693;28;20451;-76
2023/04/14 00:17:56;;;;;;;6.50;3.60;;;;;;;;;;5040508;28;20481;-77
2023/04/14 00:20:29;;;;;;;3.77;3.00;;;;;;;;;;5052826;28;20937;-76
2023/04/14 00:22:59;;;;;;;3.33;2.67;;;;;;;;;;5053710;28;20449;-75
2023/04/14 00:25:29;;;;;;;4.77;3.83;;;;;;;;;;5053639;28;20484;-77
2023/04/14 00:27:57;;;;;;;4.50;3.50;;;;;;;;;;5054822;28;20458;-76
2023/04/14 00:30:29;;;;;;;5.10;4.23;;;;;;;;;;5053226;28;20545;-76
2023/04/14 00:32:57;;;;;;;5.70;3.80;;;;;;;;;;5052851;28;20460;-76
2023/04/14 00:35:28;;;;;;;4.40;4.00;;;;;;;;;;5053591;28;20453;-76
2023/04/14 00:37:59;;;;;;;4.03;3.70;;;;;;;;;;5052486;28;20481;-77
2023/04/14 00:40:33;;;;;;;5.63;4.37;;;;;;;;;;5053233;28;20450;-77
2023/04/14 00:43:02;;;;;;;4.87;4.10;;;;;;;;;;5053782;28;20562;-77
2023/04/14 00:45:31;;;;;;;4.90;4.50;;;;;;;;;;5051915;28;20477;-77
2023/04/14 00:48:05;;;;;;;4.30;3.90;;;;;;;;;;5043097;28;20544;-77
2023/04/14 00:50:36;;;;;;;3.90;3.60;;;;;;;;;;5032621;28;20451;-77
2023/04/14 00:53:04;;;;;;;3.90;3.50;;;;;;;;;;5033613;28;20514;-76
2023/04/14 00:55:39;;;;;;;5.53;4.40;;;;;;;;;;5038343;28;20520;-77
2023/04/14 00:58:08;;;;;;;4.30;3.70;;;;;;;;;;5038480;28;20481;-76
2023/04/14 01:00:40;;;;;;;6.00;3.83;;;;;;;;;;5039003;28;20533;-78
2023/04/14 01:03:09;;;;;;;5.83;5.10;;;;;;;;;;5038342;28;20459;-77
2023/04/14 01:05:40;;;;;;;6.20;4.70;;;;;;;;;;5039134;28;20534;-78
2023/04/14 01:08:12;;;;;;;6.40;5.20;;;;;;;;;;5038847;28;20431;-77
2023/04/14 01:10:43;;;;;;;5.27;4.83;;;;;;;;;;5037710;28;20748;-77
2023/04/14 01:13:17;;;;;;;6.27;5.27;;;;;;;;;;5037009;28;20457;-76
2023/04/14 01:15:57;;;;;;;6.13;5.47;;;;;;;;;;5037581;28;20486;-77
2023/04/14 01:18:33;;;;;;;6.87;5.63;;;;;;;;;;5052073;28;20426;-76
2023/04/14 01:21:08;;;;;;;5.93;5.27;;;;;;;;;;5060246;28;20449;-77
2023/04/14 01:23:42;;;;;;;6.43;4.80;;;;;;;;;;5060294;28;20446;-77
2023/04/14 01:26:33;;;;;;;6.93;5.43;;;;;;;;;;5060380;28;20477;-78
2023/04/14 01:29:23;;;;;;;5.67;5.17;;;;;;;;;;5060612;28;20481;-77
2023/04/14 01:32:01;;;;;;;6.70;5.30;;;;;;;;;;5055576;28;20503;-77
2023/04/14 01:34:39;;;;;;;5.67;5.13;;;;;;;;;;5061684;28;20475;-77
2023/04/14 01:37:16;;;;;;;7.73;4.97;;;;;;;;;;5057355;28;20539;-77
2023/04/14 01:39:48;;;;;;;6.33;5.30;;;;;;;;;;5054275;28;20471;-77
2023/04/14 01:42:17;;;;;;;6.93;6.27;;;;;;;;;;5053999;28;20469;-77
2023/04/14 01:44:48;;;;;;;5.23;4.83;;;;;;;;;;5053587;28;20457;-77
2023/04/14 01:47:18;;;;;;;6.70;6.10;;;;;;;;;;5055321;28;20547;-78
2023/04/14 01:49:47;;;;;;;8.43;6.50;;;;;;;;;;5053718;28;20488;-76
2023/04/14 01:52:21;;;;;;;8.30;5.40;;;;;;;;;;5054117;28;20480;-78
2023/04/14 01:54:53;;;;;;;6.57;5.97;;;;;;;;;;5053671;28;20460;-76
2023/04/14 01:57:25;;;;;;;6.20;5.60;;;;;;;;;;5054436;28;20473;-77
2023/04/14 01:59:59;;;;;;;7.90;5.90;;;;;;;;;;5054283;28;20521;-78
2023/04/14 02:02:30;;;;;;;6.50;5.90;;;;;;;;;;5055524;28;20452;-77
2023/04/14 02:05:04;;;;;;;7.30;6.27;;;;;;;;;;5054118;28;20544;-77
2023/04/14 02:07:36;;;;;;;8.90;7.03;;;;;;;;;;5054357;28;20497;-76
2023/04/14 02:10:06;;;;;;;7.00;6.30;;;;;;;;;;5055262;28;20449;-78
2023/04/14 02:12:40;;;;;;;7.03;6.30;;;;;;;;;;5053879;28;20474;-77
2023/04/14 02:15:17;;;;;;;8.47;7.63;;;;;;;;;;5051841;28;20925;-78
2023/04/14 02:17:49;;;;;;;12.23;7.57;;;;;;;;;;5037970;28;20914;-76
2023/04/14 02:20:24;;;;;;;7.60;6.87;;;;;;;;;;5050790;28;20518;-77
2023/04/14 02:22:53;;;;;;;12.03;7.90;;;;;;;;;;5052982;28;20475;-77
2023/04/14 02:25:26;;;;;;;8.23;7.10;;;;;;;;;;5055866;28;20481;-77
2023/04/14 02:28:01;;;;;;;7.50;6.70;;;;;;;;;;5058465;28;20477;-76
2023/04/14 02:30:36;;;;;;;7.97;6.53;;;;;;;;;;5058763;28;20464;-76
2023/04/14 02:33:15;;;;;;;8.73;7.30;;;;;;;;;;5058449;28;20477;-77
2023/04/14 02:35:54;;;;;;;9.40;8.33;;;;;;;;;;5061365;28;20533;-76
2023/04/14 02:38:28;;;;;;;7.60;6.87;;;;;;;;;;5062139;28;20547;-76
2023/04/14 02:41:01;;;;;;;9.40;8.23;;;;;;;;;;5062798;28;20460;-77
2023/04/14 02:43:35;;;;;;;8.80;7.77;;;;;;;;;;5062627;28;20528;-76
2023/04/14 02:46:08;;;;;;;10.13;7.97;;;;;;;;;;5064412;28;21012;-78
2023/04/14 02:48:42;;;;;;;7.97;6.93;;;;;;;;;;5064732;28;20437;-77
2023/04/14 02:51:18;;;;;;;7.97;7.13;;;;;;;;;;5063736;28;20443;-76
2023/04/14 02:53:47;;;;;;;8.90;7.40;;;;;;;;;;5045464;28;20441;-76
2023/04/14 02:56:22;;;;;;;10.53;7.27;;;;;;;;;;5063026;28;20469;-76
2023/04/14 02:59:00;;;;;;;7.63;6.93;;;;;;;;;;5061881;28;20457;-77
2023/04/14 03:01:31;;;;;;;9.03;7.70;;;;;;;;;;5060950;28;20427;-77
2023/04/14 03:04:07;;;;;;;8.13;7.30;;;;;;;;;;5060336;28;20465;-77
2023/04/14 03:06:39;;;;;;;8.17;7.37;;;;;;;;;;5056233;28;20470;-78
2023/04/14 03:09:10;;;;;;;10.77;7.40;;;;;;;;;;5041603;28;20461;-77
2023/04/14 03:11:45;;;;;;;8.77;6.97;;;;;;;;;;5041600;28;20554;-77
2023/04/14 03:14:19;;;;;;;7.20;6.60;;;;;;;;;;5043088;28;20458;-77
2023/04/14 03:16:54;;;;;;;18.93;8.70;;;;;;;;;;5044416;28;20474;-77
2023/04/14 03:19:27;;;;;;;8.60;7.03;;;;;;;;;;5063203;28;20441;-78
2023/04/14 03:21:57;;;;;;;10.77;8.20;;;;;;;;;;5062807;28;20533;-78
2023/04/14 03:24:33;;;;;;;8.20;7.30;;;;;;;;;;5059136;28;20450;-77
2023/04/14 03:27:09;;;;;;;7.73;7.00;;;;;;;;;;5058565;28;20511;-77
2023/04/14 03:29:46;;;;;;;7.77;6.90;;;;;;;;;;5057690;28;20449;-76
2023/04/14 03:32:19;;;;;;;8.43;6.93;;;;;;;;;;5058680;28;20499;-76
2023/04/14 03:34:54;;;;;;;8.60;7.20;;;;;;;;;;5058304;28;20473;-77
2023/04/14 03:37:27;;;;;;;8.23;7.37;;;;;;;;;;5059261;28;20484;-76
2023/04/14 03:40:00;;;;;;;7.27;5.97;;;;;;;;;;5059405;28;20458;-76
2023/04/14 03:42:30;;;;;;;8.97;6.77;;;;;;;;;;5061144;28;20499;-78
2023/04/14 03:45:00;;;;;;;6.30;5.70;;;;;;;;;;5060315;28;20460;-77
2023/04/14 03:47:32;;;;;;;9.70;5.50;;;;;;;;;;5057789;28;20474;-77
2023/04/14 03:50:05;;;;;;;8.57;5.50;;;;;;;;;;5057725;28;20469;-76
2023/04/14 03:52:39;;;;;;;6.27;4.97;;;;;;;;;;5058087;28;20503;-78
2023/04/14 03:55:08;;;;;;;4.50;4.10;;;;;;;;;;5058497;28;20517;-76
2023/04/14 03:57:43;;;;;;;6.30;5.50;;;;;;;;;;5058610;28;20516;-77
2023/04/14 04:00:15;;;;;;;10.47;5.67;;;;;;;;;;5060195;28;20449;-78
2023/04/14 04:02:43;;;;;;;9.00;5.37;;;;;;;;;;5060933;28;20437;-76
2023/04/14 04:05:16;;;;;;;6.93;6.23;;;;;;;;;;5061072;28;20921;-76
2023/04/14 04:07:45;;;;;;;6.97;6.03;;;;;;;;;;5061051;28;20458;-77
2023/04/14 04:10:15;;;;;;;5.33;4.83;;;;;;;;;;5061464;28;20488;-76
2023/04/14 04:12:49;;;;;;;5.53;5.13;;;;;;;;;;5060291;28;20484;-77
2023/04/14 04:15:27;;;;;;;5.93;4.80;;;;;;;;;;5058977;28;20437;-77
2023/04/14 04:18:02;;;;;;;6.53;4.57;;;;;;;;;;5058604;28;20480;-77
2023/04/14 04:20:34;;;;;;;6.10;4.53;;;;;;;;;;5062084;28;20402;-76
2023/04/14 04:23:05;;;;;;;6.30;4.87;;;;;;;;;;5060127;28;20946;-76
2023/04/14 04:25:41;;;;;;;6.57;4.80;;;;;;;;;;5060255;28;20457;-76
2023/04/14 04:28:11;;;;;;;9.10;4.50;;;;;;;;;;5062215;28;21029;-80
2023/04/14 04:30:47;;;;;;;6.30;4.57;;;;;;;;;;5061171;28;20888;-77
2023/04/14 04:33:20;;;;;;;5.70;5.00;;;;;;;;;;5056050;28;20565;-77
2023/04/14 04:35:53;;;;;;;7.23;4.60;;;;;;;;;;5055963;28;20453;-77
2023/04/14 04:38:22;;;;;;;7.30;4.57;;;;;;;;;;5052521;28;20461;-77
2023/04/14 04:40:54;;;;;;;8.40;4.77;;;;;;;;;;5052426;28;20830;-76
2023/04/14 04:43:23;;;;;;;5.90;4.60;;;;;;;;;;5058989;28;20442;-76
2023/04/14 04:46:02;;;;;;;6.03;4.40;;;;;;;;;;5067522;28;20515;-76
2023/04/14 04:48:32;;;;;;;8.17;5.40;;;;;;;;;;5070470;28;20429;-77
2023/04/14 04:51:04;;;;;;;8.63;4.43;;;;;;;;;;5070086;28;20448;-77
2023/04/14 04:53:34;;;;;;;6.77;4.70;;;;;;;;;;5063224;28;20477;-76
2023/04/14 04:56:07;;;;;;;9.10;4.90;;;;;;;;;;5057980;28;20457;-77
2023/04/14 04:58:38;;;;;;;5.50;4.53;;;;;;;;;;5058005;28;20426;-76
2023/04/14 05:01:13;;;;;;;8.90;4.73;;;;;;;;;;5058036;28;20438;-78
2023/04/14 05:03:41;;;;;;;8.80;4.97;;;;;;;;;;5058313;28;20568;-76
2023/04/14 05:06:15;;;;;;;8.03;4.53;;;;;;;;;;5058388;28;20536;-76
2023/04/14 05:08:43;;;;;;;7.43;4.60;;;;;;;;;;5060965;28;20430;-76
2023/04/14 05:11:11;;;;;;;7.00;4.90;;;;;;;;;;5060109;28;20446;-76
2023/04/14 05:13:43;;;;;;;5.53;5.00;;;;;;;;;;5051996;28;20498;-76
2023/04/14 05:16:13;;;;;;;5.83;4.93;;;;;;;;;;5037879;28;20478;-76
2023/04/14 05:18:46;;;;;;;10.07;4.50;;;;;;;;;;5050585;28;20453;-77
2023/04/14 05:21:16;;;;;;;8.37;4.50;;;;;;;;;;5058093;28;20460;-78
2023/04/14 05:23:46;;;;;;;6.63;4.77;;;;;;;;;;5057237;28;20456;-77
2023/04/14 05:26:15;;;;;;;12.77;5.80;;;;;;;;;;5059077;28;20500;-79
2023/04/14 05:28:43;;;;;;;10.30;5.03;;;;;;;;;;5060232;28;20480;-78
2023/04/14 05:31:12;;;;;;;8.67;5.67;;;;;;;;;;5060152;28;20470;-77
2023/04/14 05:33:40;;;;;;;7.27;5.60;;;;;;;;;;5061635;28;20484;-78
2023/04/14 05:36:08;;;;;;;10.37;6.00;;;;;;;;;;5061552;28;20535;-77
2023/04/14 05:38:39;;;;;;;6.80;5.60;;;;;;;;;;5062367;28;20461;-77
2023/04/14 05:41:07;;;;;;;17.20;7.20;;;;;;;;;;5057834;28;20992;-77
2023/04/14 05:43:35;;;;;;;9.40;6.50;;;;;;;;;;5055527;28;20579;-78
2023/04/14 05:46:03;;;;;;;6.87;6.17;;;;;;;;;;5058372;28;20481;-77
2023/04/14 05:48:32;;;;;;;12.57;6.23;;;;;;;;;;5056810;28;20442;-77
2023/04/14 05:50:59;;;;;;;9.17;6.83;;;;;;;;;;5050040;28;20459;-76
2023/04/14 05:53:27;;;;;;;9.30;7.87;;;;;;;;;;5043265;28;20466;-78
2023/04/14 05:55:57;;;;;;;10.03;8.77;;;;;;;;;;5038574;28;20530;-78
2023/04/14 05:58:25;;;;;;;9.93;8.10;;;;;;;;;;5042321;28;20438;-77
2023/04/14 06:00:52;;;;;;;8.90;8.00;;;;;;;;;;5042059;28;20510;-78
2023/04/14 06:03:19;;;;;;;8.80;7.80;;;;;;;;;;5036240;28;20474;-78
2023/04/14 06:05:49;;;;;;;10.17;7.93;;;;;;;;;;5035658;28;20439;-76
2023/04/14 06:08:16;;;;;;;10.47;8.43;;;;;;;;;;5036142;28;20465;-78
2023/04/14 06:10:48;;;;;;;9.63;8.13;;;;;;;;;;5040545;28;20849;-77
2023/04/14 06:13:17;;;;;;;11.20;8.40;;;;;;;;;;5041036;28;20513;-78
2023/04/14 06:15:45;;;;;;;9.53;8.63;;;;;;;;;;5042286;28;20482;-78
2023/04/14 06:18:17;;;;;;;9.57;8.60;;;;;;;;;;5050750;28;20449;-77
2023/04/14 06:20:46;;;;;;;10.07;8.50;;;;;;;;;;5040947;28;20437;-78
2023/04/14 06:23:13;;;;;;;15.87;8.60;;;;;;;;;;5056144;28;20453;-78
2023/04/14 06:25:41;;;;;;;18.50;8.67;;;;;;;;;;5055044;28;21059;-78
2023/04/14 06:28:10;;;;;;;8.53;7.77;;;;;;;;;;5055029;28;20449;-78
2023/04/14 06:30:43;;;;;;;7.97;7.27;;;;;;;;;;5055965;28;20855;-77
2023/04/14 06:33:12;;;;;;;11.20;7.83;;;;;;;;;;5041739;28;20478;-77
2023/04/14 06:35:42;;;;;;;10.50;8.70;;;;;;;;;;5033884;28;20464;-77
2023/04/14 06:38:10;;;;;;;9.20;7.73;;;;;;;;;;5034592;28;20485;-78
2023/04/14 06:40:40;;;;;;;8.63;7.83;;;;;;;;;;5035629;28;20458;-77
2023/04/14 06:43:09;;;;;;;10.70;8.60;;;;;;;;;;5035432;28;21012;-76
2023/04/14 06:45:37;;;;;;;12.40;8.17;;;;;;;;;;5037638;28;20985;-76
2023/04/14 06:48:08;;;;;;;15.53;7.87;;;;;;;;;;5042697;28;20503;-78
2023/04/14 06:50:38;;;;;;;9.20;7.60;;;;;;;;;;5057634;28;20457;-76
2023/04/14 06:53:08;;;;;;;9.83;7.07;;;;;;;;;;5054705;28;20904;-77
2023/04/14 06:55:40;;;;;;;8.20;7.00;;;;;;;;;;5054812;28;20496;-77
2023/04/14 06:58:14;;;;;;;9.00;6.57;;;;;;;;;;5056281;28;20472;-76
2023/04/14 07:00:48;;;;;;;10.43;6.27;;;;;;;;;;5056854;28;20944;-78
2023/04/14 07:03:17;;;;;;;11.77;7.90;;;;;;;;;;5056220;28;20466;-80
2023/04/14 07:05:45;;;;;;;9.13;7.43;;;;;;;;;;5056498;28;20449;-78
2023/04/14 07:08:13;;;;;;;8.50;6.70;;;;;;;;;;5059350;28;20453;-78
2023/04/14 07:10:42;;;;;;;9.90;7.30;;;;;;;;;;5062059;28;20459;-80
2023/04/14 07:13:09;;;;;;;9.70;7.00;;;;;;;;;;5058834;28;20780;-77
2023/04/14 07:15:36;;;;;;;9.37;7.13;;;;;;;;;;5055514;28;20995;-77
2023/04/14 07:18:04;;;;;;;12.57;6.70;;;;;;;;;;5055053;28;20806;-79
2023/04/14 07:20:33;;;;;;;10.80;7.17;;;;;;;;;;5054264;28;20477;-77
2023/04/14 07:23:01;;;;;;;7.67;6.83;;;;;;;;;;5056936;28;20545;-77
2023/04/14 07:25:29;;;;;;;9.03;6.77;;;;;;;;;;5056385;28;20517;-76
2023/04/14 07:27:57;;;;;;;9.10;7.10;;;;;;;;;;5055215;28;20466;-78
2023/04/14 07:30:28;;;;;;;7.17;6.40;;;;;;;;;;5054829;28;20870;-78
2023/04/14 07:32:56;;;;;;;6.60;6.00;;;;;;;;;;5053203;28;20473;-78
2023/04/14 07:35:25;;;;;;;10.80;6.40;;;;;;;;;;5053454;28;20536;-77
2023/04/14 07:37:55;;;;;;;8.77;6.20;;;;;;;;;;5053760;28;20541;-77
2023/04/14 07:40:22;;;;;;;12.40;6.60;;;;;;;;;;5053702;28;20454;-79
2023/04/14 07:42:56;;;;;;;8.77;7.93;;;;;;;;;;5054614;28;20457;-77
2023/04/14 07:45:27;;;;;;;10.63;5.57;;;;;;;;;;5055193;28;20445;-78
2023/04/14 07:47:55;;;;;;;9.10;6.57;;;;;;;;;;5056298;28;20834;-77
2023/04/14 07:50:22;;;;;;;8.10;5.87;;;;;;;;;;5054522;28;20535;-77
2023/04/14 07:52:50;;;;;;;11.03;5.90;;;;;;;;;;5054688;28;20457;-78
2023/04/14 07:55:22;;;;;;;7.60;6.10;;;;;;;;;;5055740;28;20430;-77
2023/04/14 07:57:52;;;;;;;7.13;5.30;;;;;;;;;;5055916;28;20969;-76
2023/04/14 08:00:23;;;;;;;11.80;6.30;;;;;;;;;;5055872;28;20453;-76
2023/04/14 08:02:53;;;;;;;6.70;5.17;;;;;;;;;;5057661;28;20501;-78
2023/04/14 08:05:24;;;;;;;6.23;5.63;;;;;;;;;;5055604;28;20442;-77
2023/04/14 08:07:53;;;;;;;8.13;5.70;;;;;;;;;;5057469;28;20450;-77
2023/04/14 08:10:25;;;;;;;7.73;4.80;;;;;;;;;;5056467;28;20426;-78
2023/04/14 08:12:54;;;;;;;9.67;4.80;;;;;;;;;;5055624;28;20961;-77
2023/04/14 08:15:22;;;;;;;11.20;4.63;;;;;;;;;;5055711;28;20460;-77
2023/04/14 08:17:50;;;;;;;4.40;2.17;;;;;;;;;;5049215;28;20478;-78
2023/04/14 08:20:18;;;;;;;4.40;2.27;;;;;;;;;;5036193;28;21060;-77
2023/04/14 08:22:46;;;;;;;7.57;4.73;;;;;;;;;;5036462;28;20457;-77
2023/04/14 08:25:15;;;;;;;7.97;4.40;;;;;;;;;;5037797;28;20471;-77
2023/04/14 08:27:48;;;;;;;6.67;3.90;;;;;;;;;;5037893;28;20471;-76
2023/04/14 08:30:19;;;;;;;6.97;5.27;;;;;;;;;;5040434;28;20462;-77
2023/04/14 08:32:49;;;;;;;4.57;4.13;;;;;;;;;;5042174;28;20416;-78
2023/04/14 08:35:17;;;;;;;6.83;4.70;;;;;;;;;;5044064;28;20449;-77
2023/04/14 08:37:49;;;;;;;6.27;4.77;;;;;;;;;;5044310;28;20490;-79
2023/04/14 08:40:20;;;;;;;5.23;4.13;;;;;;;;;;5044706;28;20510;-77
2023/04/14 08:42:49;;;;;;;7.20;3.40;;;;;;;;;;5044275;28;20442;-79
2023/04/14 08:45:27;;;;;;;2.33;1.77;;;;;;;;;;5044339;28;20506;-79
2023/04/14 08:47:56;;;;;;;3.23;1.50;;;;;;;;;;5043124;28;20543;-78
2023/04/14 08:50:30;;;;;;;3.27;2.10;;;;;;;;;;5043340;28;20473;-75
2023/04/14 08:53:02;;;;;;;3.23;2.20;;;;;;;;;;5042085;28;20997;-76
2023/04/14 08:55:31;;;;;;;3.33;1.80;;;;;;;;;;5043006;28;20461;-77
2023/04/14 08:58:04;;;;;;;4.40;1.90;;;;;;;;;;5043355;28;20470;-76
2023/04/14 09:00:37;;;;;;;6.00;1.70;;;;;;;;;;5041763;28;20505;-77
2023/04/14 09:03:06;;;;;;;6.07;1.90;;;;;;;;;;5042006;28;20758;-78
2023/04/14 09:05:34;;;;;;;6.17;2.00;;;;;;;;;;5040415;28;20474;-79
2023/04/14 09:08:01;;;;;;;3.50;1.90;;;;;;;;;;5039158;28;20473;-76
2023/04/14 09:10:30;;;;;;;4.97;1.87;;;;;;;;;;5038948;28;21031;-77
2023/04/14 09:12:58;;;;;;;4.10;1.87;;;;;;;;;;5039032;28;20451;-77
2023/04/14 09:15:27;;;;;;;2.70;1.90;;;;;;;;;;5037905;28;20505;-78
2023/04/14 09:17:59;;;;;;;3.63;2.20;;;;;;;;;;5034787;28;20482;-77
2023/04/14 09:20:32;;;;;;;4.53;2.03;;;;;;;;;;5034682;28;20988;-77
2023/04/14 09:23:20;;;;;;;3.43;1.97;;;;;;;;;;5033226;28;20577;-78
2023/04/14 09:25:50;;;;;;;4.80;2.17;;;;;;;;;;5033626;28;20532;-77
2023/04/14 09:28:18;;;;;;;5.60;1.87;;;;;;;;;;5040640;28;20528;-77
2023/04/14 09:30:48;;;;;;;5.43;2.60;;;;;;;;;;5039453;28;20457;-77
2023/04/14 09:33:20;;;;;;;4.53;2.33;;;;;;;;;;5043124;28;20565;-76
2023/04/14 09:35:49;;;;;;;3.93;2.40;;;;;;;;;;5040161;28;20550;-77
2023/04/14 09:38:32;;;;;;;3.80;2.23;;;;;;;;;;5041163;28;20454;-77
2023/04/14 09:41:01;;;;;;;5.30;2.10;;;;;;;;;;5041905;28;20458;-78
2023/04/14 09:43:31;;;;;;;1.70;1.60;;;;;;;;;;5047385;28;20519;-78
2023/04/14 09:46:08;;;;;;;4.10;2.17;;;;;;;;;;5047669;28;20582;-77
2023/04/14 09:48:36;;;;;;;4.37;2.33;;;;;;;;;;5036924;28;20728;-77
2023/04/14 09:51:06;;;;;;;4.43;2.43;;;;;;;;;;5033954;28;20474;-77
2023/04/14 09:53:34;;;;;;;5.00;3.00;;;;;;;;;;5033088;28;20478;-76
2023/04/14 09:56:04;;;;;;;6.53;2.10;;;;;;;;;;5033614;28;20470;-78
2023/04/14 09:58:35;;;;;;;5.50;2.00;;;;;;;;;;5033088;28;20970;-78
2023/04/14 10:01:07;;;;;;;7.63;2.00;;;;;;;;;;5036518;28;20427;-77
2023/04/14 10:03:36;;;;;;;5.20;1.70;;;;;;;;;;5033986;28;20462;-78
2023/04/14 10:06:04;;;;;;;4.27;2.10;;;;;;;;;;5033890;28;20536;-77
2023/04/14 10:08:36;;;;;;;4.67;1.70;;;;;;;;;;5035921;28;20462;-77
2023/04/14 10:11:17;;;;;;;4.03;2.23;;;;;;;;;;5038770;28;20453;-77
2023/04/14 10:13:46;;;;;;;3.33;2.23;;;;;;;;;;5038865;28;20478;-76
2023/04/14 10:16:16;;;;;;;5.93;2.87;;;;;;;;;;5038228;28;20471;-76
2023/04/14 10:18:45;;;;;;;3.83;2.37;;;;;;;;;;5036729;28;20454;-77
2023/04/14 10:21:13;;;;;;;7.00;2.63;;;;;;;;;;5040524;28;20541;-77
2023/04/14 10:23:42;;;;;;;6.57;2.43;;;;;;;;;;5038371;28;20531;-78
2023/04/14 10:26:13;;;;;;;4.20;2.33;;;;;;;;;;5036308;28;20463;-76
2023/04/14 10:28:45;;;;;;;6.03;2.23;;;;;;;;;;5034864;28;20866;-77
2023/04/14 10:31:18;;;;;;;7.07;2.33;;;;;;;;;;5034157;28;20454;-75
2023/04/14 10:33:48;;;;;;;11.00;3.17;;;;;;;;;;5035049;28;20486;-76
2023/04/14 10:36:24;;;;;;;4.50;2.13;;;;;;;;;;5034753;28;20467;-77
2023/04/14 10:38:58;;;;;;;5.50;2.90;;;;;;;;;;5035187;28;20458;-76
2023/04/14 10:41:28;;;;;;;6.10;3.07;;;;;;;;;;5037198;28;20455;-76
2023/04/14 10:43:56;;;;;;;8.07;2.43;;;;;;;;;;5037349;28;20457;-77
2023/04/14 10:46:24;;;;;;;3.93;2.00;;;;;;;;;;5035877;28;20526;-78
2023/04/14 10:48:54;;;;;;;4.20;2.33;;;;;;;;;;5037305;28;20478;-79
2023/04/14 10:51:22;;;;;;;8.23;2.60;;;;;;;;;;5037286;28;20692;-78
2023/04/14 10:53:54;;;;;;;7.10;2.57;;;;;;;;;;5038964;28;20463;-77
2023/04/14 10:56:23;;;;;;;5.83;2.73;;;;;;;;;;5043266;28;20469;-77
2023/04/14 10:58:55;;;;;;;3.77;1.83;;;;;;;;;;5047701;28;20454;-76
2023/04/14 11:01:26;;;;;;;7.30;2.40;;;;;;;;;;5047760;28;20518;-77
2023/04/14 11:03:55;;;;;;;4.30;2.73;;;;;;;;;;5047960;28;20473;-77
2023/04/14 11:06:41;;;;;;;4.30;2.13;;;;;;;;;;5051320;28;20463;-77
2023/04/14 11:09:23;;;;;;;4.03;2.07;;;;;;;;;;5041572;28;20438;-76
2023/04/14 11:11:54;;;;;;;7.43;2.63;;;;;;;;;;5051444;28;20980;-76
2023/04/14 11:14:26;;;;;;;3.80;1.93;;;;;;;;;;5051724;28;20497;-76
2023/04/14 11:17:00;;;;;;;6.70;2.73;;;;;;;;;;5051907;28;20481;-74
2023/04/14 11:19:30;;;;;;;3.73;1.87;;;;;;;;;;5067473;28;20525;-76
2023/04/14 11:21:58;;;;;;;4.83;2.23;;;;;;;;;;5063202;28;20963;-77
2023/04/14 11:24:26;;;;;;;5.43;2.77;;;;;;;;;;5057782;28;20430;-77
2023/04/14 11:26:54;;;;;;;4.07;1.60;;;;;;;;;;5057577;28;20469;-76
2023/04/14 11:29:22;;;;;;;5.87;2.83;;;;;;;;;;5058842;28;20441;-77
2023/04/14 11:32:00;;;;;;;4.73;1.70;;;;;;;;;;5058668;28;20555;-77
2023/04/14 11:34:28;;;;;;;4.27;1.70;;;;;;;;;;5057590;28;20480;-77
2023/04/14 11:37:00;;;;;;;4.60;2.27;;;;;;;;;;5058217;28;20477;-76
2023/04/14 11:39:28;;;;;;;4.70;2.00;;;;;;;;;;5060375;28;20452;-77
2023/04/14 11:41:58;;;;;;;2.70;1.70;;;;;;;;;;5060059;28;20563;-78
2023/04/14 11:44:29;;;;;;;4.43;1.70;;;;;;;;;;5059529;28;20446;-77
2023/04/14 11:46:57;;;;;;;4.10;1.73;;;;;;;;;;5060407;28;20469;-76
2023/04/14 11:49:43;;;;;;;2.77;1.57;;;;;;;;;;5064983;28;20484;-77
2023/04/14 11:52:12;;;;;;;12.83;2.50;;;;;;;;;;5067907;28;20454;-77
2023/04/14 11:54:39;;;;;;;5.37;2.17;;;;;;;;;;5067127;28;20470;-76
2023/04/14 11:57:11;;;;;;;4.43;1.90;;;;;;;;;;5066287;28;20485;-77
2023/04/14 11:59:46;;;;;;;8.77;2.27;;;;;;;;;;5067370;28;20448;-77
2023/04/14 12:02:17;;;;;;;5.00;2.07;;;;;;;;;;5069332;28;20536;-77
2023/04/14 12:04:47;;;;;;;3.53;2.20;;;;;;;;;;5069945;28;20526;-76
2023/04/14 12:07:18;;;;;;;3.90;1.90;;;;;;;;;;5068180;28;20454;-76
2023/04/14 12:09:48;;;;;;;5.20;2.27;;;;;;;;;;5064332;28;20442;-77
2023/04/14 12:12:16;;;;;;;4.37;1.70;;;;;;;;;;5066172;28;20454;-77
2023/04/14 12:14:44;;;;;;;2.30;1.53;;;;;;;;;;5060410;28;20473;-77
2023/04/14 12:17:14;;;;;;;3.90;1.67;;;;;;;;;;5055274;28;20472;-77
2023/04/14 12:19:41;;;;;;;4.00;1.90;;;;;;;;;;5037663;28;20530;-78
2023/04/14 12:22:08;;;;;;;2.47;1.60;;;;;;;;;;5038104;28;20447;-77
2023/04/14 12:24:38;;;;;;;4.57;1.87;;;;;;;;;;5037733;28;20450;-75
2023/04/14 12:27:09;;;;;;;1.67;1.40;;;;;;;;;;5036800;28;20521;-77
2023/04/14 12:29:37;;;;;;;3.17;1.30;;;;;;;;;;5035453;28;20446;-75
2023/04/14 12:35:17;;;;;;;1.90;1.43;;;;;;;;;;5032287;28;20489;-77
2023/04/14 12:46:59;;;;;;;2.13;1.27;;;;;;;;;;5040714;28;20443;-76
2023/04/14 12:53:00;;;;;;;3.00;1.43;;;;;;;;;;5036467;28;20544;-77
2023/04/14 12:55:28;;;;;;;3.70;1.73;;;;;;;;;;5042404;28;20502;-75
2023/04/14 12:58:01;;;;;;;2.20;1.40;;;;;;;;;;5040711;28;20509;-76
2023/04/14 13:00:29;;;;;;;4.00;1.33;;;;;;;;;;5042258;28;20454;-75
2023/04/14 13:03:02;;;;;;;2.37;1.60;;;;;;;;;;5040088;28;20439;-77
2023/04/14 13:05:32;;;;;;;2.57;1.67;;;;;;;;;;5040244;28;20454;-78
2023/04/14 13:08:00;;;;;;;2.60;1.47;;;;;;;;;;5040537;28;20466;-76
2023/04/14 13:10:28;;;;;;;1.57;1.47;;;;;;;;;;5039435;28;21147;-76
2023/04/14 13:12:56;;;;;;;1.43;1.20;;;;;;;;;;5040457;28;20455;-75
2023/04/14 13:15:31;;;;;;;2.80;1.70;;;;;;;;;;5039025;28;20467;-78
2023/04/14 13:18:01;;;;;;;1.83;1.33;;;;;;;;;;5047135;28;20454;-75
2023/04/14 13:20:30;;;;;;;2.00;1.70;;;;;;;;;;5060768;28;20470;-75
2023/04/14 13:23:13;;;;;;;3.80;1.57;;;;;;;;;;5058826;28;20524;-76
2023/04/14 13:28:27;;;;;;;3.93;1.40;;;;;;;;;;5053983;28;20456;-78
2023/04/14 13:30:58;;;;;;;2.40;1.50;;;;;;;;;;5055255;28;20523;-77
2023/04/14 13:33:31;;;;;;;1.90;1.20;;;;;;;;;;5055335;28;20455;-78
2023/04/14 13:35:59;;;;;;;3.23;1.80;;;;;;;;;;5053478;28;20481;-75
2023/04/14 13:38:27;;;;;;;2.33;1.70;;;;;;;;;;5053022;28;20583;-75
2023/04/14 13:40:58;;;;;;;2.00;1.40;;;;;;;;;;5053428;28;20434;-75
2023/04/14 13:43:26;;;;;;;2.27;1.50;;;;;;;;;;5052873;28;20529;-76
2023/04/14 13:45:59;;;;;;;2.07;1.40;;;;;;;;;;5054558;28;20529;-75
2023/04/14 13:48:31;;;;;;;2.10;1.30;;;;;;;;;;5057016;28;20949;-76
2023/04/14 13:51:00;;;;;;;2.33;1.57;;;;;;;;;;5058248;28;20520;-76
2023/04/14 13:53:29;;;;;;;3.10;1.30;;;;;;;;;;5054022;28;20453;-79
2023/04/14 13:55:57;;;;;;;3.87;1.67;;;;;;;;;;5055189;28;21170;-76
2023/04/14 13:58:25;;;;;;;2.27;1.40;;;;;;;;;;5057860;28;20469;-76
2023/04/14 14:00:56;;;;;;;2.27;1.60;;;;;;;;;;5037807;28;20442;-77
2023/04/14 14:03:24;;;;;;;2.30;1.30;;;;;;;;;;5036200;28;20431;-76
2023/04/14 14:05:55;;;;;;;3.60;1.60;;;;;;;;;;5036159;28;20546;-77
2023/04/14 14:08:24;;;;;;;4.10;1.50;;;;;;;;;;5036385;28;20455;-76
2023/04/14 14:10:54;;;;;;;2.27;1.30;;;;;;;;;;5034534;28;20462;-77
2023/04/14 14:13:26;;;;;;;3.40;1.40;;;;;;;;;;5037422;28;20824;-76
2023/04/14 14:15:58;;;;;;;2.37;1.40;;;;;;;;;;5041506;28;20868;-76
2023/04/14 14:18:27;;;;;;;3.03;1.67;;;;;;;;;;5040079;28;20446;-75
2023/04/14 14:20:57;;;;;;;2.43;1.30;;;;;;;;;;5040232;28;20442;-78
2023/04/14 14:23:31;;;;;;;1.50;1.30;;;;;;;;;;5039071;28;20462;-76
2023/04/14 14:26:04;;;;;;;2.10;1.40;;;;;;;;;;5036218;28;20954;-78
2023/04/14 14:28:32;;;;;;;2.47;1.27;;;;;;;;;;5037056;28;20942;-78
2023/04/14 14:31:10;;;;;;;1.87;1.33;;;;;;;;;;5036192;28;21036;-77
2023/04/14 14:33:40;;;;;;;1.60;1.30;;;;;;;;;;5038143;28;20434;-75
2023/04/14 14:36:08;;;;;;;2.63;1.70;;;;;;;;;;5037619;28;20532;-75
2023/04/14 14:38:41;;;;;;;1.73;1.27;;;;;;;;;;5037566;28;20465;-77
2023/04/14 14:41:10;;;;;;;3.53;1.50;;;;;;;;;;5038989;28;20438;-79
2023/04/14 14:43:38;;;;;;;1.70;1.23;;;;;;;;;;5039159;28;20844;-78
2023/04/14 14:46:09;;;;;;;2.43;1.53;;;;;;;;;;5042116;28;20458;-77
2023/04/14 14:48:36;;;;;;;1.50;1.20;;;;;;;;;;5045888;28;20453;-78
2023/04/14 14:51:05;;;;;;;3.93;1.53;;;;;;;;;;5041903;28;20441;-78
2023/04/14 14:53:32;;;;;;;1.87;1.37;;;;;;;;;;5054880;28;20453;-75
2023/04/14 14:56:01;;;;;;;2.13;1.40;;;;;;;;;;5054833;28;20499;-76
2023/04/14 14:58:29;;;;;;;1.50;1.30;;;;;;;;;;5054882;28;20449;-75
2023/04/14 15:00:56;;;;;;;2.60;1.33;;;;;;;;;;5056684;28;20643;-75
2023/04/14 15:03:24;;;;;;;1.57;1.17;;;;;;;;;;5055429;28;20449;-77
2023/04/14 15:05:52;;;;;;;2.10;1.37;;;;;;;;;;5055498;28;20434;-78
2023/04/14 15:08:20;;;;;;;2.57;1.40;;;;;;;;;;5052375;28;20816;-77
2023/04/14 15:10:48;;;;;;;2.90;1.30;;;;;;;;;;5035386;28;20545;-76
2023/04/14 15:13:17;;;;;;;3.17;1.40;;;;;;;;;;5036399;28;20454;-81
2023/04/14 15:15:47;;;;;;;2.43;1.30;;;;;;;;;;5036280;28;20569;-76
2023/04/14 15:18:15;;;;;;;2.03;1.23;;;;;;;;;;5046543;28;20473;-78
2023/04/14 15:20:43;;;;;;;1.40;1.30;;;;;;;;;;5056307;28;20839;-78